createdAt,value
2023-02-08T00:01:28.014Z,83.11
2023-02-08T00:03:56.712Z,82.89
2023-02-08T00:06:25.256Z,85.10
2023-02-08T00:08:53.696Z,84.87
2023-02-08T00:11:22.165Z,85.47
2023-02-08T00:13:50.604Z,83.32
2023-02-08T00:16:19.648Z,82.78
2023-02-08T00:18:48.210Z,82.14
2023-02-08T00:21:18.497Z,82.40
2023-02-08T00:23:47.379Z,82.60
2023-02-08T00:26:16.435Z,84.03
2023-02-08T00:28:45.355Z,85.31
2023-02-08T00:31:14.051Z,86.90
2023-02-08T00:33:42.909Z,84.67
2023-02-08T00:36:11.988Z,83.46
2023-02-08T00:38:43.668Z,82.65
2023-02-08T00:41:12.485Z,82.76
2023-02-08T00:43:41.253Z,83.82
2023-02-08T00:46:11.173Z,83.87
2023-02-08T00:48:39.629Z,84.27
2023-02-08T00:51:13.751Z,84.04
2023-02-08T00:53:45.069Z,84.94
2023-02-08T00:56:15.429Z,85.61
2023-02-08T00:58:43.920Z,86.91
2023-02-08T01:01:13.792Z,88.12
2023-02-08T01:03:43.801Z,86.77
2023-02-08T01:06:18.304Z,86.45
2023-02-08T01:08:47.336Z,85.92
2023-02-08T01:11:25.298Z,87.28
2023-02-08T01:13:57.543Z,88.11
2023-02-08T01:16:32.108Z,87.39
2023-02-08T01:19:03.660Z,86.65
2023-02-08T01:21:35.448Z,85.94
2023-02-08T01:24:05.543Z,86.66
2023-02-08T01:26:35.105Z,86.83
2023-02-08T01:29:04.659Z,86.30
2023-02-08T01:31:36.568Z,87.17
2023-02-08T01:34:06.120Z,87.35
2023-02-08T01:36:35.607Z,87.78
2023-02-08T01:39:06.172Z,87.02
2023-02-08T01:41:38.475Z,86.32
2023-02-08T01:44:12.754Z,85.36
2023-02-08T01:46:43.865Z,87.43
2023-02-08T01:49:20.868Z,87.32
2023-02-08T01:52:01.860Z,88.20
2023-02-08T01:54:38.645Z,88.83
2023-02-08T01:57:08.134Z,88.65
2023-02-08T01:59:46.120Z,87.84
2023-02-08T02:02:17.910Z,88.88
2023-02-08T02:04:49.018Z,89.64
2023-02-08T02:07:19.687Z,90.52
2023-02-08T02:09:55.291Z,90.37
2023-02-08T02:12:25.047Z,90.03
2023-02-08T02:14:54.224Z,90.21
2023-02-08T02:17:23.032Z,90.90
2023-02-08T02:20:15.920Z,91.37
2023-02-08T02:23:09.255Z,89.30
2023-02-08T02:25:59.364Z,89.53
2023-02-08T02:29:02.916Z,89.68
2023-02-08T02:31:56.038Z,89.47
2023-02-08T02:35:00.157Z,89.66
2023-02-08T02:37:53.558Z,89.46
2023-02-08T02:40:40.052Z,89.15
2023-02-08T02:43:35.076Z,87.67
2023-02-08T02:46:07.731Z,90.18
2023-02-08T02:48:48.529Z,89.57
2023-02-08T02:51:16.926Z,89.08
2023-02-08T02:53:59.481Z,88.16
2023-02-08T02:56:38.336Z,88.07
2023-02-08T02:59:10.480Z,87.66
2023-02-08T03:01:40.617Z,87.22
2023-02-08T03:04:34.481Z,88.19
2023-02-08T03:07:14.884Z,86.44
2023-02-08T03:10:05.352Z,86.09
2023-02-08T03:12:58.917Z,85.90
2023-02-08T03:15:30.320Z,85.19
2023-02-08T03:18:09.613Z,87.29
2023-02-08T03:20:43.451Z,87.05
2023-02-08T03:23:22.002Z,87.31
2023-02-08T03:26:16.330Z,86.53
2023-02-08T03:28:58.947Z,84.53
2023-02-08T03:31:38.464Z,84.54
2023-02-08T03:34:41.803Z,84.91
2023-02-08T03:37:22.538Z,84.05
2023-02-08T03:39:56.523Z,83.34
2023-02-08T03:42:28.326Z,83.69
2023-02-08T03:45:02.835Z,85.62
2023-02-08T03:47:37.670Z,87.58
2023-02-08T03:50:11.902Z,86.28
2023-02-08T03:52:40.814Z,86.64
2023-02-08T03:55:14.594Z,87.70
2023-02-08T03:57:56.978Z,88.56
2023-02-08T04:00:25.942Z,89.84
2023-02-08T04:03:03.184Z,88.81
2023-02-08T04:05:31.944Z,86.68
2023-02-08T04:08:00.967Z,86.19
2023-02-08T04:10:29.572Z,86.24
2023-02-08T04:12:58.051Z,86.39
2023-02-08T04:15:27.654Z,85.25
2023-02-08T04:17:56.178Z,85.47
2023-02-08T04:20:24.626Z,86.24
2023-02-08T04:22:53.113Z,87.06
2023-02-08T04:25:21.669Z,86.51
2023-02-08T04:27:50.198Z,86.23
2023-02-08T04:30:18.656Z,86.75
2023-02-08T04:32:47.185Z,86.66
2023-02-08T04:35:15.803Z,86.06
2023-02-08T04:37:44.303Z,86.00
2023-02-08T04:40:12.891Z,87.57
2023-02-08T04:42:41.294Z,88.27
2023-02-08T04:45:10.802Z,87.78
2023-02-08T04:47:39.303Z,87.82
2023-02-08T04:50:07.910Z,87.87
2023-02-08T04:52:36.484Z,87.50
2023-02-08T04:55:05.282Z,87.87
2023-02-08T04:57:33.988Z,86.63
2023-02-08T05:00:02.700Z,85.92
2023-02-08T05:02:31.292Z,85.83
2023-02-08T05:04:59.832Z,87.77
2023-02-08T05:07:28.372Z,88.46
2023-02-08T05:09:56.881Z,87.69
2023-02-08T05:12:25.491Z,86.64
2023-02-08T05:14:53.895Z,87.54
2023-02-08T05:17:22.391Z,87.09
2023-02-08T05:19:50.911Z,88.87
2023-02-08T05:22:19.418Z,88.38
2023-02-08T05:24:47.842Z,88.33
2023-02-08T05:27:16.298Z,86.97
2023-02-08T05:29:44.829Z,85.86
2023-02-08T05:32:13.432Z,85.70
2023-02-08T05:34:41.890Z,84.52
2023-02-08T05:37:10.577Z,84.29
2023-02-08T05:39:39.064Z,84.65
2023-02-08T05:42:07.549Z,84.33
2023-02-08T05:44:36.153Z,83.22
2023-02-08T05:47:04.766Z,81.83
2023-02-08T05:49:33.359Z,81.22
2023-02-08T05:52:01.812Z,81.99
2023-02-08T05:54:30.265Z,82.18
2023-02-08T05:56:58.644Z,82.08
2023-02-08T05:59:27.186Z,82.40
2023-02-08T06:01:55.763Z,81.27
2023-02-08T06:04:24.377Z,79.49
2023-02-08T06:06:52.853Z,80.30
2023-02-08T06:09:21.311Z,80.64
2023-02-08T06:11:50.224Z,80.85
2023-02-08T06:14:18.810Z,81.23
2023-02-08T06:16:47.309Z,80.92
2023-02-08T06:19:15.770Z,80.96
2023-02-08T06:21:44.410Z,79.87
2023-02-08T06:24:13.985Z,80.14
2023-02-08T06:26:44.337Z,79.69
2023-02-08T06:29:12.812Z,80.27
2023-02-08T06:31:41.419Z,80.17
2023-02-08T06:34:10.249Z,82.78
2023-02-08T06:36:38.684Z,82.15
2023-02-08T06:39:07.104Z,81.54
2023-02-08T06:41:36.105Z,80.74
2023-02-08T06:44:04.621Z,80.09
2023-02-08T06:46:33.017Z,80.11
2023-02-08T06:49:01.455Z,79.86
2023-02-08T06:51:29.930Z,80.02
2023-02-08T06:53:58.466Z,80.43
2023-02-08T06:56:26.929Z,79.66
2023-02-08T06:58:57.058Z,78.41
2023-02-08T07:01:25.880Z,79.44
2023-02-08T07:03:54.360Z,79.30
2023-02-08T07:06:23.104Z,78.18
2023-02-08T07:08:51.639Z,78.54
2023-02-08T07:11:21.555Z,76.81
2023-02-08T07:13:51.763Z,76.13
2023-02-08T07:16:21.107Z,75.96
2023-02-08T07:18:49.601Z,75.75
2023-02-08T07:21:18.074Z,76.66
2023-02-08T07:23:46.709Z,75.79
2023-02-08T07:26:15.467Z,75.14
2023-02-08T07:28:44.328Z,75.68
2023-02-08T07:31:16.625Z,75.95
2023-02-08T07:33:45.374Z,74.62
2023-02-08T07:36:13.966Z,75.49
2023-02-08T07:38:42.528Z,74.05
2023-02-08T07:41:13.582Z,74.13
2023-02-08T07:43:43.184Z,73.45
2023-02-08T07:46:18.363Z,73.54
2023-02-08T07:48:49.473Z,73.31
2023-02-08T07:51:17.996Z,71.93
2023-02-08T07:53:46.832Z,69.49
2023-02-08T07:56:15.573Z,68.61
2023-02-08T07:58:44.262Z,68.41
2023-02-08T08:01:21.950Z,68.21
2023-02-08T08:03:52.806Z,67.17
2023-02-08T08:06:23.276Z,66.10
2023-02-08T08:08:52.144Z,66.42
2023-02-08T08:11:21.744Z,65.48
2023-02-08T08:13:51.249Z,64.49
2023-02-08T08:16:20.855Z,65.29
2023-02-08T08:18:49.535Z,64.03
2023-02-08T08:21:18.063Z,63.49
2023-02-08T08:23:47.576Z,63.52
2023-02-08T08:26:18.982Z,64.00
2023-02-08T08:28:48.377Z,63.94
2023-02-08T08:31:20.365Z,64.44
2023-02-08T08:33:49.885Z,64.66
2023-02-08T08:36:18.800Z,65.31
2023-02-08T08:38:47.310Z,64.49
2023-02-08T08:41:18.291Z,63.66
2023-02-08T08:43:49.187Z,62.49
2023-02-08T08:46:18.142Z,62.96
2023-02-08T08:48:47.109Z,62.03
2023-02-08T08:51:15.658Z,60.95
2023-02-08T08:53:44.252Z,60.63
2023-02-08T08:56:12.837Z,60.39
2023-02-08T08:58:41.549Z,59.64
2023-02-08T09:01:10.021Z,59.22
2023-02-08T09:03:38.547Z,59.28
2023-02-08T09:06:07.108Z,58.68
2023-02-08T09:08:35.551Z,58.82
2023-02-08T09:11:08.081Z,58.69
2023-02-08T09:13:37.387Z,58.75
2023-02-08T09:16:11.449Z,58.74
2023-02-08T09:18:40.526Z,57.53
2023-02-08T09:21:15.989Z,57.42
2023-02-08T09:23:47.699Z,56.87
2023-02-08T09:26:18.249Z,56.60
2023-02-08T09:28:47.051Z,56.63
2023-02-08T09:31:21.507Z,57.49
2023-02-08T09:33:52.292Z,56.25
2023-02-08T09:36:23.242Z,56.30
2023-02-08T09:39:00.536Z,56.43
2023-02-08T09:42:02.396Z,56.55
2023-02-08T09:44:46.104Z,56.44
2023-02-08T09:47:20.407Z,56.79
2023-02-08T09:50:02.529Z,56.98
2023-02-08T09:52:48.538Z,57.88
2023-02-08T09:55:32.568Z,56.72
2023-02-08T09:58:08.497Z,56.33
2023-02-08T10:00:42.725Z,55.97
2023-02-08T10:03:28.546Z,56.22
2023-02-08T10:05:57.365Z,55.86
2023-02-08T10:08:35.007Z,56.14
2023-02-08T10:11:09.829Z,55.35
2023-02-08T10:13:42.609Z,55.89
2023-02-08T10:16:44.161Z,54.79
2023-02-08T10:19:21.783Z,55.04
2023-02-08T10:22:15.920Z,55.57
2023-02-08T10:25:19.662Z,55.30
2023-02-08T10:28:04.811Z,55.71
2023-02-08T10:30:50.285Z,55.57
2023-02-08T10:34:02.307Z,55.52
2023-02-08T10:36:42.676Z,54.99
2023-02-08T10:39:24.882Z,54.38
2023-02-08T10:41:53.532Z,54.04
2023-02-08T10:44:36.365Z,54.13
2023-02-08T10:47:17.345Z,54.23
2023-02-08T10:49:58.982Z,53.61
2023-02-08T10:52:27.846Z,53.03
2023-02-08T10:54:59.673Z,54.08
2023-02-08T10:57:34.225Z,54.97
2023-02-08T11:00:07.509Z,53.95
2023-02-08T11:02:41.514Z,53.38
2023-02-08T11:05:18.450Z,53.72
2023-02-08T11:07:47.310Z,53.78
2023-02-08T11:10:18.662Z,53.29
2023-02-08T11:13:05.894Z,52.88
2023-02-08T11:15:47.110Z,52.03
2023-02-08T11:18:33.379Z,51.57
2023-02-08T11:21:21.763Z,50.89
2023-02-08T11:23:55.785Z,51.14
2023-02-08T11:26:37.658Z,51.69
2023-02-08T11:29:15.193Z,51.65
2023-02-08T11:32:02.986Z,51.00
2023-02-08T11:34:39.035Z,50.10
2023-02-08T11:37:21.251Z,51.31
2023-02-08T11:39:55.521Z,51.45
2023-02-08T11:42:31.496Z,51.73
2023-02-08T11:45:01.193Z,50.67
2023-02-08T11:47:33.420Z,50.30
2023-02-08T11:50:05.833Z,50.83
2023-02-08T11:52:42.921Z,50.22
2023-02-08T11:55:13.609Z,50.36
2023-02-08T11:58:01.615Z,49.83
2023-02-08T12:00:37.417Z,48.21
2023-02-08T12:03:15.178Z,48.84
2023-02-08T12:06:08.133Z,50.04
2023-02-08T12:08:54.793Z,50.95
2023-02-08T12:11:46.666Z,50.30
2023-02-08T12:14:53.096Z,50.37
2023-02-08T12:17:37.330Z,50.79
2023-02-08T12:20:25.987Z,51.05
2023-02-08T12:23:25.295Z,50.97
2023-02-08T12:26:05.630Z,50.67
2023-02-08T12:28:51.514Z,50.05
2023-02-08T12:31:36.030Z,47.94
2023-02-08T12:34:28.749Z,46.74
2023-02-08T12:37:35.161Z,45.63
2023-02-08T12:40:32.392Z,45.48
2023-02-08T12:43:14.964Z,44.77
2023-02-08T12:46:01.959Z,44.36
2023-02-08T12:49:13.088Z,44.53
2023-02-08T12:51:47.459Z,44.28
2023-02-08T12:54:26.985Z,45.06
2023-02-08T12:57:02.405Z,43.84
2023-02-08T12:59:54.402Z,44.52
2023-02-08T13:02:26.415Z,42.85
2023-02-08T13:05:00.564Z,41.60
2023-02-08T13:08:18.210Z,41.68
2023-02-08T13:10:53.671Z,41.07
2023-02-08T13:13:31.516Z,43.46
2023-02-08T13:16:17.126Z,45.44
2023-02-08T13:18:55.973Z,45.42
2023-02-08T13:21:32.598Z,45.60
2023-02-08T13:24:01.315Z,44.33
2023-02-08T13:26:35.485Z,44.79
2023-02-08T13:29:05.142Z,45.17
2023-02-08T13:31:42.185Z,46.63
2023-02-08T13:34:30.707Z,49.63
2023-02-08T13:37:16.597Z,49.83
2023-02-08T13:40:04.402Z,51.29
2023-02-08T13:42:43.359Z,51.29
2023-02-08T13:45:26.612Z,51.60
2023-02-08T13:48:04.646Z,51.73
2023-02-08T13:50:51.018Z,52.41
2023-02-08T13:53:39.690Z,54.01
2023-02-08T13:56:13.736Z,54.16
2023-02-08T13:58:48.366Z,54.62
2023-02-08T14:01:23.331Z,54.61
2023-02-08T14:04:10.086Z,53.96
2023-02-08T14:06:55.979Z,54.37
2023-02-08T14:09:46.879Z,54.96
2023-02-08T14:12:23.988Z,55.54
2023-02-08T14:15:30.359Z,56.04
2023-02-08T14:18:00.991Z,57.62
2023-02-08T14:20:34.061Z,58.06
2023-02-08T14:23:20.928Z,58.28
2023-02-08T14:25:51.987Z,57.42
2023-02-08T14:28:35.986Z,57.02
2023-02-08T14:31:07.937Z,58.15
2023-02-08T14:33:40.814Z,58.77
2023-02-08T14:36:30.785Z,59.26
2023-02-08T14:39:26.415Z,60.19
2023-02-08T14:42:05.766Z,60.96
2023-02-08T14:44:43.648Z,62.28
2023-02-08T14:47:32.208Z,62.36
2023-02-08T14:50:25.027Z,62.33
2023-02-08T14:53:01.584Z,62.97
2023-02-08T14:55:54.759Z,63.45
2023-02-08T14:58:33.232Z,63.48
2023-02-08T15:01:13.978Z,63.22
2023-02-08T15:03:43.835Z,63.07
2023-02-08T15:06:24.094Z,64.82
2023-02-08T15:08:54.477Z,64.92
2023-02-08T15:11:27.048Z,64.89
2023-02-08T15:14:00.953Z,65.47
2023-02-08T15:16:41.199Z,65.77
2023-02-08T15:19:21.396Z,67.66
2023-02-08T15:21:50.038Z,68.48
2023-02-08T15:24:30.056Z,69.31
2023-02-08T15:26:58.658Z,70.87
2023-02-08T15:29:42.757Z,71.89
2023-02-08T15:32:16.906Z,72.23
2023-02-08T15:34:52.569Z,72.52
2023-02-08T15:37:21.965Z,73.79
2023-02-08T15:39:58.394Z,73.73
2023-02-08T15:42:29.941Z,74.32
2023-02-08T15:45:00.881Z,74.83
2023-02-08T15:47:33.709Z,76.18
2023-02-08T15:50:05.666Z,75.89
2023-02-08T15:52:37.093Z,77.40
2023-02-08T15:55:12.797Z,78.57
2023-02-08T15:57:44.427Z,79.14
2023-02-08T16:00:21.289Z,79.08
2023-02-08T16:02:56.304Z,81.21
2023-02-08T16:05:28.625Z,82.18
2023-02-08T16:07:58.080Z,83.60
2023-02-08T16:10:40.846Z,84.48
2023-02-08T16:13:31.957Z,85.32
2023-02-08T16:16:21.441Z,85.61
2023-02-08T16:19:05.633Z,86.08
2023-02-08T16:21:39.809Z,85.32
2023-02-08T16:24:11.126Z,85.45
2023-02-08T16:26:44.708Z,86.40
2023-02-08T16:29:27.265Z,86.99
2023-02-08T16:32:07.922Z,87.01
2023-02-08T16:34:38.968Z,87.69
2023-02-08T16:37:21.041Z,87.21
2023-02-08T16:39:54.244Z,87.24
2023-02-08T16:42:27.077Z,85.81
2023-02-08T16:45:01.406Z,84.26
2023-02-08T16:47:42.123Z,83.84
2023-02-08T16:50:25.424Z,84.04
2023-02-08T16:53:03.157Z,84.63
2023-02-08T16:55:34.143Z,85.13
2023-02-08T16:58:02.680Z,84.18
2023-02-08T17:00:34.643Z,83.55
2023-02-08T17:03:03.277Z,82.76
2023-02-08T17:05:37.933Z,81.51
2023-02-08T17:08:12.950Z,81.88
2023-02-08T17:10:42.521Z,82.73
2023-02-08T17:13:21.221Z,82.45
2023-02-08T17:15:51.357Z,82.08
2023-02-08T17:18:21.452Z,82.19
2023-02-08T17:20:50.819Z,82.50
2023-02-08T17:23:19.274Z,82.25
2023-02-08T17:25:47.802Z,82.39
2023-02-08T17:28:19.426Z,82.48
2023-02-08T17:30:49.409Z,83.12
2023-02-08T17:33:18.764Z,83.78
2023-02-08T17:35:50.514Z,83.15
2023-02-08T17:38:20.597Z,83.37
2023-02-08T17:40:49.110Z,83.67
2023-02-08T17:43:17.925Z,83.76
2023-02-08T17:45:47.064Z,83.70
2023-02-08T17:48:16.275Z,84.15
2023-02-08T17:50:51.115Z,85.45
2023-02-08T17:53:20.205Z,86.57
2023-02-08T17:55:48.652Z,88.05
2023-02-08T17:58:18.390Z,90.82
2023-02-08T18:00:47.027Z,91.86
2023-02-08T18:03:17.436Z,91.12
2023-02-08T18:05:45.850Z,89.42
2023-02-08T18:08:14.506Z,91.49
2023-02-08T18:10:43.345Z,92.43
2023-02-08T18:13:12.004Z,92.84
2023-02-08T18:15:40.535Z,93.94
2023-02-08T18:18:09.259Z,94.69
2023-02-08T18:20:37.696Z,94.58
2023-02-08T18:23:06.213Z,93.88
2023-02-08T18:25:34.653Z,95.25
2023-02-08T18:28:03.149Z,95.05
2023-02-08T18:30:32.567Z,95.84
2023-02-08T18:33:01.058Z,95.69
2023-02-08T18:35:29.495Z,96.76
2023-02-08T18:37:58.008Z,97.27
2023-02-08T18:40:26.572Z,97.81
2023-02-08T18:42:55.234Z,98.21
2023-02-08T18:45:23.708Z,96.70
2023-02-08T18:47:52.253Z,94.97
2023-02-08T18:50:20.667Z,94.73
2023-02-08T18:52:49.095Z,97.31
2023-02-08T18:55:17.572Z,99.77
2023-02-08T18:57:49.065Z,100.00
2023-02-08T19:00:17.652Z,100.00
2023-02-08T19:02:46.814Z,100.00
2023-02-08T19:05:15.659Z,100.00
2023-02-08T19:07:44.156Z,100.00
2023-02-08T19:10:12.605Z,100.00
2023-02-08T19:12:41.867Z,100.00
2023-02-08T19:15:10.434Z,100.00
2023-02-08T19:17:38.864Z,100.00
2023-02-08T19:20:08.290Z,100.00
2023-02-08T19:22:36.726Z,100.00
2023-02-08T19:25:05.609Z,100.00
2023-02-08T19:27:34.267Z,100.00
2023-02-08T19:30:04.995Z,100.00
2023-02-08T19:32:33.708Z,100.00
2023-02-08T19:35:02.287Z,100.00
2023-02-08T19:37:30.767Z,100.00
2023-02-08T19:39:59.239Z,100.00
2023-02-08T19:42:27.736Z,100.00
2023-02-08T19:44:56.719Z,100.00
2023-02-08T19:47:43.429Z,100.00
2023-02-08T19:50:14.648Z,100.00
2023-02-08T19:52:43.737Z,100.00
2023-02-08T19:55:12.294Z,100.00
2023-02-08T19:57:40.969Z,100.00
2023-02-08T20:00:22.612Z,100.00
2023-02-08T20:02:52.214Z,100.00
2023-02-08T20:05:21.032Z,100.00
2023-02-08T20:07:49.549Z,100.00
2023-02-08T20:10:18.052Z,100.00
2023-02-08T20:12:46.461Z,100.00
2023-02-08T20:15:14.917Z,100.00
2023-02-08T20:17:44.862Z,100.00
2023-02-08T20:20:13.387Z,100.00
2023-02-08T20:22:41.823Z,100.00
2023-02-08T20:25:10.252Z,100.00
2023-02-08T20:27:38.952Z,100.00
2023-02-08T20:30:07.816Z,100.00
2023-02-08T20:32:36.439Z,100.00
2023-02-08T20:35:05.061Z,100.00
2023-02-08T20:37:33.982Z,100.00
2023-02-08T20:40:03.937Z,100.00
2023-02-08T20:42:32.360Z,100.00
2023-02-08T20:45:00.982Z,100.00
2023-02-08T20:47:31.882Z,100.00
2023-02-08T20:50:05.029Z,100.00
2023-02-08T20:52:38.784Z,100.00
2023-02-08T20:55:08.557Z,100.00
2023-02-08T20:57:37.073Z,100.00
2023-02-08T21:00:06.324Z,100.00
2023-02-08T21:02:35.009Z,100.00
2023-02-08T21:05:04.107Z,100.00
2023-02-08T21:07:33.045Z,100.00
2023-02-08T21:10:04.189Z,100.00
2023-02-08T21:12:33.477Z,100.00
2023-02-08T21:15:02.151Z,100.00
2023-02-08T21:17:30.866Z,100.00
2023-02-08T21:19:59.482Z,100.00
2023-02-08T21:22:27.855Z,100.00
2023-02-08T21:24:56.333Z,100.00
2023-02-08T21:27:24.874Z,100.00
2023-02-08T21:29:53.378Z,100.00
2023-02-08T21:32:21.897Z,100.00
2023-02-08T21:34:52.496Z,100.00
2023-02-08T21:37:20.944Z,100.00
2023-02-08T21:39:49.554Z,100.00
2023-02-08T21:42:18.003Z,100.00
2023-02-08T21:44:46.442Z,100.00
2023-02-08T21:47:14.842Z,100.00
2023-02-08T21:50:01.990Z,100.00
2023-02-08T21:52:49.153Z,100.00
2023-02-08T21:55:17.773Z,100.00
2023-02-08T21:57:46.334Z,100.00
2023-02-08T22:00:15.218Z,100.00
2023-02-08T22:02:43.998Z,100.00
2023-02-08T22:05:13.670Z,100.00
2023-02-08T22:07:56.929Z,100.00
2023-02-08T22:10:30.963Z,100.00
2023-02-08T22:12:59.678Z,100.00
2023-02-08T22:15:30.277Z,100.00
2023-02-08T22:18:01.893Z,100.00
2023-02-08T22:20:31.041Z,100.00
2023-02-08T22:22:59.618Z,100.00
2023-02-08T22:25:28.108Z,100.00
2023-02-08T22:27:56.539Z,100.00
2023-02-08T22:30:25.713Z,100.00
2023-02-08T22:32:54.428Z,100.00
2023-02-08T22:35:22.974Z,100.00
2023-02-08T22:37:51.586Z,100.00
2023-02-08T22:40:20.509Z,100.00
2023-02-08T22:42:49.000Z,100.00
2023-02-08T22:45:17.586Z,100.00
2023-02-08T22:47:46.291Z,100.00
2023-02-08T22:50:15.553Z,100.00
2023-02-08T22:52:43.998Z,100.00
2023-02-08T22:55:12.775Z,100.00
2023-02-08T22:57:43.692Z,100.00
2023-02-08T23:00:15.105Z,100.00
2023-02-08T23:02:43.873Z,100.00
2023-02-08T23:05:13.201Z,100.00
2023-02-08T23:07:41.883Z,100.00
2023-02-08T23:10:11.998Z,100.00
2023-02-08T23:12:40.561Z,100.00
2023-02-08T23:15:11.247Z,100.00
2023-02-08T23:17:49.011Z,100.00
2023-02-08T23:20:17.628Z,100.00
2023-02-08T23:22:46.133Z,100.00
2023-02-08T23:25:15.708Z,100.00
2023-02-08T23:27:44.244Z,100.00
2023-02-08T23:30:13.072Z,100.00
2023-02-08T23:32:42.260Z,100.00
2023-02-08T23:35:11.116Z,100.00
2023-02-08T23:37:39.691Z,100.00
2023-02-08T23:40:11.577Z,100.00
2023-02-08T23:42:40.052Z,100.00
2023-02-08T23:45:08.861Z,100.00
2023-02-08T23:47:38.050Z,100.00
2023-02-08T23:50:08.138Z,100.00
2023-02-08T23:52:37.467Z,100.00
2023-02-08T23:55:06.591Z,100.00
2023-02-08T23:57:37.826Z,100.00
